Time;durP1;ratioP1;P1;durP2;ratioP2;P2;SDS_P1;SDS_P2;PMS_P1;PMS_P2;Temp;Humidity;BMP_temperature;BMP_pressure;BME280_temperature;BME280_humidity;BME280_pressure;Samples;Min_cycle;Max_cycle;Signal;HPM_P1;HPM_P2
2023/04/29 00:00:31;;;;;;;18.00;12.90;;;23.20;56.60;;;;;;221321;1251;22530;-54
2023/04/29 00:05:49;;;;;;;21.90;13.20;;;23.20;57.40;;;;;;221422;1270;23364;-49
2023/04/29 00:10:54;;;;;;;20.00;12.90;;;23.20;57.30;;;;;;221518;1267;22567;-48
2023/04/29 00:15:58;;;;;;;21.00;12.10;;;23.30;56.80;;;;;;221461;1274;25685;-54
2023/04/29 00:21:04;;;;;;;18.20;13.10;;;23.40;57.00;;;;;;221471;1250;25463;-48
2023/04/29 00:26:10;;;;;;;20.00;13.20;;;23.40;57.10;;;;;;221267;1266;25318;-50
2023/04/29 00:31:15;;;;;;;20.10;12.70;;;23.40;57.30;;;;;;221345;1260;24242;-52
2023/04/29 00:36:19;;;;;;;19.10;12.10;;;23.30;57.40;;;;;;221399;1274;22513;-51
2023/04/29 00:41:23;;;;;;;19.00;13.10;;;23.40;57.50;;;;;;221316;1266;22511;-50
2023/04/29 00:46:27;;;;;;;18.20;12.40;;;23.30;57.70;;;;;;221305;1270;22501;-53
2023/04/29 00:51:32;;;;;;;16.90;11.90;;;23.30;58.00;;;;;;221298;1266;25718;-52
2023/04/29 00:56:40;;;;;;;17.60;12.00;;;23.40;57.90;;;;;;221855;1269;25358;-51
2023/04/29 01:01:44;;;;;;;18.90;11.70;;;23.20;58.30;;;;;;221714;1266;22525;-52
2023/04/29 01:06:52;;;;;;;17.10;12.40;;;23.10;59.10;;;;;;221979;1257;25462;-50
2023/04/29 01:12:21;;;;;;;17.20;12.30;;;23.30;58.60;;;;;;221751;1273;22546;-51
2023/04/29 01:17:30;;;;;;;18.60;12.60;;;23.30;58.40;;;;;;221620;1270;22770;-53
2023/04/29 01:22:34;;;;;;;15.90;11.40;;;23.30;58.30;;;;;;221535;1270;25120;-55
2023/04/29 01:28:18;;;;;;;14.40;10.80;;;23.30;58.90;;;;;;221946;1249;22534;-50
2023/04/29 01:33:47;;;;;;;18.70;11.10;;;23.20;58.20;;;;;;221941;1260;22681;-49
2023/04/29 01:39:11;;;;;;;13.60;9.90;;;23.20;58.10;;;;;;221777;1272;22524;-54
2023/04/29 01:44:20;;;;;;;14.30;10.80;;;23.10;57.90;;;;;;221544;1259;22508;-53
2023/04/29 01:49:25;;;;;;;13.90;10.00;;;23.10;57.80;;;;;;221798;1262;24334;-52
2023/04/29 01:54:30;;;;;;;14.30;10.20;;;23.10;57.80;;;;;;221705;1258;23708;-51
2023/04/29 01:59:35;;;;;;;15.10;9.90;;;23.10;57.80;;;;;;221865;1269;24384;-50
2023/04/29 02:04:58;;;;;;;13.40;9.50;;;23.10;57.90;;;;;;221885;1270;22521;-55
2023/04/29 02:10:03;;;;;;;13.00;8.90;;;23.00;57.90;;;;;;221376;1260;210209;-50
2023/04/29 02:15:09;;;;;;;13.00;9.50;;;23.00;57.90;;;;;;221798;1269;22518;-50
2023/04/29 02:20:14;;;;;;;13.40;8.90;;;23.00;58.20;;;;;;221563;1269;22605;-49
2023/04/29 02:25:18;;;;;;;11.80;8.70;;;23.00;58.00;;;;;;221545;1272;22526;-52
2023/04/29 02:30:22;;;;;;;10.70;9.10;;;23.00;58.00;;;;;;222007;1269;22523;-51
2023/04/29 02:35:26;;;;;;;11.70;8.80;;;22.90;58.30;;;;;;221690;1257;22645;-51
2023/04/29 02:40:30;;;;;;;14.60;8.10;;;22.90;57.80;;;;;;221554;1262;23950;-50
2023/04/29 02:45:35;;;;;;;12.20;8.60;;;22.90;57.90;;;;;;221772;1266;25328;-49
2023/04/29 02:50:39;;;;;;;9.70;8.10;;;22.90;58.10;;;;;;221964;1270;22535;-53
2023/04/29 02:55:43;;;;;;;9.00;7.80;;;23.10;58.60;;;;;;221755;1257;22558;-51
2023/04/29 03:00:48;;;;;;;11.20;7.80;;;23.30;57.50;;;;;;221468;1273;23306;-50
2023/04/29 03:05:52;;;;;;;10.30;8.10;;;23.60;56.50;;;;;;221536;1260;22508;-53
2023/04/29 03:10:56;;;;;;;8.30;7.50;;;23.70;56.20;;;;;;221530;1269;22516;-57
2023/04/29 03:16:00;;;;;;;11.90;8.20;;;23.80;56.20;;;;;;221405;1262;22652;-52
2023/04/29 03:21:05;;;;;;;8.70;7.60;;;23.80;55.70;;;;;;221638;1272;22531;-52
2023/04/29 03:26:09;;;;;;;10.00;6.80;;;23.90;55.70;;;;;;221748;1260;25342;-52
2023/04/29 03:31:15;;;;;;;8.00;5.90;;;23.90;55.70;;;;;;221464;1266;24680;-53
2023/04/29 03:36:20;;;;;;;8.10;6.80;;;24.10;55.60;;;;;;221698;1263;25465;-54
2023/04/29 03:41:53;;;;;;;9.40;6.70;;;24.10;55.20;;;;;;221385;1260;22540;-54
2023/04/29 03:46:58;;;;;;;6.60;5.70;;;24.30;54.80;;;;;;221627;1267;25473;-53
2023/04/29 03:52:03;;;;;;;7.70;6.70;;;24.30;54.70;;;;;;221599;1257;25386;-49
2023/04/29 03:57:08;;;;;;;7.80;7.00;;;24.40;54.70;;;;;;221579;1257;24367;-53
2023/04/29 04:02:12;;;;;;;8.40;6.10;;;24.40;54.50;;;;;;221477;1262;22533;-51
2023/04/29 04:07:16;;;;;;;6.50;5.70;;;24.40;54.60;;;;;;221729;1269;24323;-52
2023/04/29 04:12:39;;;;;;;7.40;6.30;;;24.40;54.70;;;;;;221819;1266;23934;-54
2023/04/29 04:17:47;;;;;;;9.20;6.50;;;24.30;54.80;;;;;;221894;1260;23879;-52
2023/04/29 04:22:53;;;;;;;8.40;6.20;;;24.30;55.00;;;;;;221709;1266;22501;-54
2023/04/29 04:28:00;;;;;;;8.30;6.20;;;24.30;55.10;;;;;;221763;1262;22523;-50
2023/04/29 04:33:25;;;;;;;8.90;6.10;;;24.20;55.30;;;;;;221703;1266;22519;-51
2023/04/29 04:38:29;;;;;;;7.10;6.10;;;24.20;55.10;;;;;;221634;1269;24380;-51
2023/04/29 04:43:33;;;;;;;9.30;6.00;;;24.10;55.40;;;;;;221521;1260;22606;-50
2023/04/29 04:48:38;;;;;;;6.10;5.50;;;24.00;55.60;;;;;;221555;1260;22527;-50
2023/04/29 04:53:43;;;;;;;7.60;5.70;;;24.00;55.50;;;;;;221774;1258;25463;-52
2023/04/29 04:58:59;;;;;;;6.40;5.70;;;24.00;55.40;;;;;;221610;1257;22695;-54
2023/04/29 05:04:04;;;;;;;6.70;5.50;;;23.90;55.40;;;;;;221512;1249;22754;-52
2023/04/29 05:09:08;;;;;;;6.40;5.20;;;23.80;55.40;;;;;;221379;1269;22626;-52
2023/04/29 05:14:12;;;;;;;6.50;5.80;;;23.80;55.50;;;;;;221337;1254;26698;-50
2023/04/29 05:19:19;;;;;;;5.10;4.60;;;23.90;56.50;;;;;;221575;1267;24239;-51
2023/04/29 05:24:22;;;;;;;6.60;5.40;;;23.90;56.80;;;;;;221621;1266;24845;-52
2023/04/29 05:29:27;;;;;;;5.80;5.20;;;23.80;57.30;;;;;;221999;1269;25300;-50
2023/04/29 05:34:33;;;;;;;5.80;4.80;;;23.70;55.70;;;;;;221775;1266;22511;-51
2023/04/29 05:39:38;;;;;;;6.10;5.40;;;23.70;55.70;;;;;;222051;1269;22679;-56
2023/04/29 05:44:46;;;;;;;5.20;4.70;;;23.60;56.40;;;;;;221693;1257;22638;-50
2023/04/29 05:49:50;;;;;;;4.80;4.10;;;23.60;56.10;;;;;;221683;1257;24045;-52
2023/04/29 05:54:55;;;;;;;6.50;4.90;;;23.50;56.80;;;;;;221584;1266;22514;-53
2023/04/29 05:59:59;;;;;;;5.70;5.00;;;23.50;56.50;;;;;;221429;1262;22530;-51
2023/04/29 06:05:04;;;;;;;6.60;5.20;;;23.40;56.30;;;;;;221402;1259;22514;-52
2023/04/29 06:10:32;;;;;;;4.30;3.90;;;23.50;56.30;;;;;;221812;1251;24070;-50
2023/04/29 06:15:37;;;;;;;4.90;4.30;;;23.50;56.30;;;;;;221970;1257;24802;-50
2023/04/29 06:20:41;;;;;;;5.50;4.90;;;23.40;56.20;;;;;;221597;1267;25497;-51
2023/04/29 06:25:46;;;;;;;5.60;5.10;;;23.40;56.40;;;;;;221481;1258;25204;-50
2023/04/29 06:30:50;;;;;;;4.20;3.90;;;23.40;56.40;;;;;;221545;1273;22521;-50
2023/04/29 06:35:57;;;;;;;6.40;5.00;;;23.40;56.00;;;;;;221513;1262;22637;-51
2023/04/29 06:41:29;;;;;;;5.10;4.10;;;23.40;56.50;;;;;;221452;1267;22532;-54
2023/04/29 06:46:57;;;;;;;5.40;4.10;;;23.40;56.20;;;;;;221784;1260;23890;-48
2023/04/29 06:52:24;;;;;;;4.80;3.90;;;23.40;56.10;;;;;;221734;1266;22596;-53
2023/04/29 06:57:28;;;;;;;4.70;4.30;;;23.30;56.20;;;;;;221354;1262;22511;-53
2023/04/29 07:02:32;;;;;;;4.70;4.20;;;23.30;56.30;;;;;;221568;1266;22563;-53
2023/04/29 07:07:38;;;;;;;5.00;4.10;;;23.30;56.60;;;;;;221679;1258;25318;-50
2023/04/29 07:12:42;;;;;;;4.60;4.10;;;23.30;56.30;;;;;;221945;1269;22515;-50
2023/04/29 07:17:46;;;;;;;5.50;4.40;;;23.30;56.60;;;;;;221674;1273;22527;-50
2023/04/29 07:22:51;;;;;;;4.70;4.10;;;23.30;56.20;;;;;;222703;1264;23875;-55
2023/04/29 07:27:56;;;;;;;4.40;4.00;;;23.30;56.40;;;;;;222563;1257;22522;-48
2023/04/29 07:33:03;;;;;;;6.50;4.50;;;23.20;56.60;;;;;;222359;1253;23890;-48
2023/04/29 07:38:08;;;;;;;7.90;4.20;;;23.20;56.50;;;;;;222855;1266;23785;-50
2023/04/29 07:43:12;;;;;;;8.70;4.60;;;23.30;56.20;;;;;;222537;1266;22799;-49
2023/04/29 07:48:17;;;;;;;6.50;4.10;;;23.30;56.10;;;;;;223025;1266;22523;-50
2023/04/29 07:53:21;;;;;;;9.70;4.30;;;23.40;56.50;;;;;;222799;1264;24095;-57
2023/04/29 07:58:27;;;;;;;5.20;4.40;;;23.30;56.40;;;;;;223072;1257;22518;-58
2023/04/29 08:03:32;;;;;;;9.30;4.70;;;23.30;56.30;;;;;;223240;1263;22599;-55
2023/04/29 08:08:37;;;;;;;8.80;4.50;;;23.30;56.20;;;;;;222720;1263;25261;-54
2023/04/29 08:13:41;;;;;;;6.20;4.10;;;23.20;56.70;;;;;;222548;1266;22522;-59
2023/04/29 08:18:46;;;;;;;14.50;3.90;;;23.20;57.60;;;;;;222726;1262;24358;-50
2023/04/29 08:23:54;;;;;;;10.30;4.50;;;23.20;58.10;;;;;;222845;1266;25303;-49
2023/04/29 08:28:58;;;;;;;9.40;4.70;;;23.20;57.50;;;;;;223186;1263;25168;-49
2023/04/29 08:34:04;;;;;;;12.20;3.70;;;23.20;57.30;;;;;;222527;1269;26481;-51
2023/04/29 08:39:09;;;;;;;10.30;4.40;;;23.30;57.20;;;;;;222682;1266;23938;-56
2023/04/29 08:44:17;;;;;;;10.90;4.50;;;23.20;57.70;;;;;;223332;1254;24251;-54
2023/04/29 08:49:22;;;;;;;7.70;4.60;;;23.30;57.40;;;;;;222740;1269;22527;-53
2023/04/29 08:54:28;;;;;;;5.00;4.40;;;23.30;57.70;;;;;;222834;1264;24362;-56
2023/04/29 08:59:32;;;;;;;12.90;4.30;;;23.30;59.30;;;;;;223058;1266;24216;-52
2023/04/29 09:05:07;;;;;;;13.50;4.60;;;23.30;59.80;;;;;;222649;1261;22623;-53
2023/04/29 09:10:11;;;;;;;8.30;4.30;;;23.30;60.20;;;;;;222795;1257;22523;-54
2023/04/29 09:15:16;;;;;;;5.20;3.70;;;23.30;60.20;;;;;;223051;1265;23934;-50
2023/04/29 09:20:22;;;;;;;8.40;3.90;;;23.30;59.70;;;;;;222557;1254;25367;-48
2023/04/29 09:25:27;;;;;;;6.40;4.30;;;23.30;59.50;;;;;;222792;1268;24242;-50
2023/04/29 09:30:31;;;;;;;5.80;4.00;;;23.30;59.30;;;;;;222401;1266;24204;-53
2023/04/29 09:35:36;;;;;;;7.40;3.90;;;23.40;59.50;;;;;;222925;1263;22511;-53
2023/04/29 09:40:42;;;;;;;6.20;3.90;;;23.40;59.10;;;;;;222951;1260;23000;-52
2023/04/29 09:46:03;;;;;;;7.10;3.70;;;23.40;59.30;;;;;;222912;1269;24336;-49
2023/04/29 09:51:07;;;;;;;6.20;3.80;;;23.50;59.00;;;;;;222533;1246;23915;-50
2023/04/29 09:56:11;;;;;;;7.70;3.70;;;23.70;58.60;;;;;;222309;1263;22548;-52
2023/04/29 10:01:19;;;;;;;7.20;3.40;;;23.60;58.60;;;;;;222373;1263;22505;-52
2023/04/29 10:06:24;;;;;;;5.70;3.40;;;23.60;58.90;;;;;;222384;1250;23300;-52
2023/04/29 10:11:30;;;;;;;3.80;3.50;;;23.60;58.60;;;;;;222626;1263;24180;-52
2023/04/29 10:16:45;;;;;;;3.60;3.10;;;23.60;58.40;;;;;;222527;1262;26935;-48
2023/04/29 10:21:50;;;;;;;19.20;3.70;;;23.50;58.80;;;;;;222652;1264;22511;-47
2023/04/29 10:26:55;;;;;;;32.60;4.60;;;23.60;58.80;;;;;;222779;1266;23591;-50
2023/04/29 10:32:00;;;;;;;20.30;4.50;;;23.50;59.00;;;;;;222624;1266;22756;-52
2023/04/29 10:37:09;;;;;;;10.90;3.60;;;23.50;59.50;;;;;;222894;1262;22524;-49
2023/04/29 10:42:51;;;;;;;8.00;3.10;;;23.50;59.00;;;;;;222167;1268;22505;-50
2023/04/29 10:48:01;;;;;;;17.00;3.80;;;23.60;58.10;;;;;;226741;1248;22537;-50
2023/04/29 10:53:06;;;;;;;6.10;3.40;;;23.60;57.90;;;;;;224372;1269;24267;-48
2023/04/29 10:58:44;;;;;;;7.30;2.90;;;23.60;58.00;;;;;;223072;1256;23910;-50
2023/04/29 11:04:00;;;;;;;15.00;3.70;;;23.40;58.30;;;;;;221166;1275;26638;-47
2023/04/29 11:09:18;;;;;;;8.10;3.50;;;23.60;57.90;;;;;;220993;1267;22524;-50
2023/04/29 11:14:36;;;;;;;7.60;2.90;;;23.60;58.10;;;;;;220849;1274;22671;-51
2023/04/29 11:19:45;;;;;;;7.90;3.20;;;23.40;58.80;;;;;;221237;1276;25394;-46
2023/04/29 11:25:01;;;;;;;6.70;3.40;;;23.60;58.30;;;;;;221193;1270;24193;-49
2023/04/29 11:30:07;;;;;;;10.00;3.60;;;23.60;58.30;;;;;;220948;1270;22776;-50
2023/04/29 11:35:15;;;;;;;5.50;2.60;;;23.60;58.30;;;;;;221012;1276;24739;-48
2023/04/29 11:40:20;;;;;;;7.60;2.90;;;23.80;57.80;;;;;;222512;1266;22529;-49
2023/04/29 11:45:25;;;;;;;6.70;2.80;;;23.80;58.10;;;;;;222593;1256;26506;-45
2023/04/29 11:50:31;;;;;;;4.70;3.40;;;23.70;58.00;;;;;;222753;1254;22522;-48
2023/04/29 11:55:37;;;;;;;6.00;3.60;;;23.70;58.00;;;;;;223167;1254;22629;-49
2023/04/29 12:00:41;;;;;;;7.40;2.90;;;23.80;58.80;;;;;;222524;1261;25121;-47
2023/04/29 12:05:55;;;;;;;6.20;2.80;;;23.80;57.90;;;;;;222670;1263;22511;-45
2023/04/29 12:11:00;;;;;;;9.00;2.70;;;23.90;57.60;;;;;;222563;1266;24182;-48
2023/04/29 12:16:05;;;;;;;3.60;2.50;;;23.90;57.80;;;;;;222624;1257;22525;-49
2023/04/29 12:21:10;;;;;;;6.40;2.60;;;24.00;57.80;;;;;;222167;1266;23876;-49
2023/04/29 12:26:16;;;;;;;4.20;2.60;;;23.90;57.60;;;;;;222277;1264;22504;-50
2023/04/29 12:31:21;;;;;;;6.10;2.40;;;23.90;58.00;;;;;;222557;1264;22517;-48
2023/04/29 12:36:28;;;;;;;6.30;2.70;;;23.90;58.60;;;;;;222231;1266;22578;-48
2023/04/29 12:41:40;;;;;;;10.50;2.90;;;23.90;58.50;;;;;;222540;1269;22535;-47
2023/04/29 12:46:44;;;;;;;7.50;2.80;;;23.80;59.00;;;;;;222474;1269;22518;-49
2023/04/29 12:51:49;;;;;;;13.40;3.40;;;24.00;58.60;;;;;;222408;1259;24727;-54
2023/04/29 12:56:53;;;;;;;7.30;3.00;;;24.00;60.60;;;;;;222452;1264;22764;-53
2023/04/29 13:01:57;;;;;;;11.90;3.70;;;23.90;59.80;;;;;;222595;1269;22507;-51
2023/04/29 13:07:03;;;;;;;9.40;3.50;;;24.20;58.60;;;;;;222508;1266;22585;-57
2023/04/29 13:12:08;;;;;;;10.80;3.10;;;24.30;58.60;;;;;;222323;1269;24291;-58
2023/04/29 13:17:12;;;;;;;9.50;3.70;;;24.30;58.60;;;;;;222498;1269;22519;-57
2023/04/29 13:22:17;;;;;;;15.10;3.50;;;24.30;61.00;;;;;;222836;1269;22520;-54
2023/04/29 13:27:21;;;;;;;7.50;3.60;;;24.20;59.60;;;;;;222471;1269;22542;-55
2023/04/29 13:32:26;;;;;;;8.00;3.40;;;24.10;59.20;;;;;;222357;1266;22635;-51
2023/04/29 13:37:45;;;;;;;5.10;3.30;;;24.20;59.30;;;;;;222366;1267;22604;-50
2023/04/29 13:42:49;;;;;;;6.70;2.90;;;24.10;59.20;;;;;;222445;1264;22516;-50
2023/04/29 13:48:08;;;;;;;3.50;2.40;;;24.00;60.70;;;;;;222517;1269;22511;-49
2023/04/29 13:53:33;;;;;;;5.80;2.90;;;24.10;59.60;;;;;;222482;1264;22558;-54
2023/04/29 13:58:57;;;;;;;4.50;2.70;;;23.90;58.10;;;;;;222462;1262;22512;-55
2023/04/29 14:04:05;;;;;;;5.60;2.80;;;24.00;57.80;;;;;;222426;1265;24210;-55
2023/04/29 14:09:11;;;;;;;6.20;2.30;;;24.00;57.50;;;;;;222401;1266;22572;-56
2023/04/29 14:14:16;;;;;;;5.60;2.00;;;24.10;57.50;;;;;;221957;1269;786970;-55
2023/04/29 14:19:20;;;;;;;7.60;2.50;;;23.90;57.90;;;;;;222451;1266;24147;-56
2023/04/29 14:24:25;;;;;;;7.00;2.60;;;23.80;57.60;;;;;;222309;1269;24176;-55
2023/04/29 14:29:30;;;;;;;6.90;2.70;;;23.80;57.30;;;;;;222426;1269;26506;-57
2023/04/29 14:34:35;;;;;;;4.50;2.60;;;23.70;60.10;;;;;;222729;1269;22605;-57
2023/04/29 14:39:39;;;;;;;5.80;2.40;;;23.70;59.70;;;;;;222554;1266;25425;-57
2023/04/29 14:44:43;;;;;;;5.40;2.20;;;23.70;59.40;;;;;;222266;1256;24311;-56
2023/04/29 14:49:47;;;;;;;6.40;2.20;;;23.70;59.20;;;;;;222352;1269;24200;-56
2023/04/29 14:54:52;;;;;;;3.60;1.90;;;23.90;58.60;;;;;;222457;1264;22529;-59
2023/04/29 14:59:56;;;;;;;8.10;3.50;;;23.80;59.50;;;;;;220891;1261;25378;-57
2023/04/29 15:05:02;;;;;;;5.20;2.90;;;23.70;58.60;;;;;;221215;1270;22647;-57
2023/04/29 15:10:08;;;;;;;3.10;2.30;;;23.70;58.70;;;;;;221004;1265;22531;-58
2023/04/29 15:15:12;;;;;;;4.50;2.60;;;23.90;58.80;;;;;;221260;1262;23953;-57
2023/04/29 15:20:17;;;;;;;3.30;2.60;;;24.00;59.00;;;;;;221039;1269;22514;-57
2023/04/29 15:25:21;;;;;;;3.60;2.20;;;24.00;58.40;;;;;;220925;1270;22538;-57
2023/04/29 15:30:29;;;;;;;4.30;2.10;;;23.90;57.60;;;;;;221128;1276;22866;-57
2023/04/29 15:35:35;;;;;;;2.50;2.20;;;23.90;58.60;;;;;;221084;1269;24842;-56
2023/04/29 15:40:40;;;;;;;2.60;2.20;;;23.90;58.10;;;;;;222096;1264;22643;-57
2023/04/29 15:45:44;;;;;;;3.40;2.20;;;23.90;57.40;;;;;;222271;1269;26517;-56
2023/04/29 15:50:49;;;;;;;2.90;2.00;;;23.90;57.90;;;;;;222274;1257;22514;-59
2023/04/29 15:55:55;;;;;;;5.00;2.30;;;23.90;57.50;;;;;;222347;1266;22516;-57
2023/04/29 16:00:59;;;;;;;3.30;2.00;;;23.90;57.30;;;;;;221962;1247;23038;-58
2023/04/29 16:06:03;;;;;;;4.00;1.80;;;23.80;57.80;;;;;;222194;1263;24239;-59
2023/04/29 16:11:08;;;;;;;2.30;2.10;;;23.80;58.10;;;;;;222532;1266;22701;-57
2023/04/29 16:16:12;;;;;;;2.70;2.00;;;23.90;57.50;;;;;;222192;1254;22636;-58
2023/04/29 16:21:17;;;;;;;3.90;2.00;;;23.80;57.60;;;;;;222180;1266;23924;-58
2023/04/29 16:26:24;;;;;;;1.90;1.80;;;23.80;57.60;;;;;;222323;1269;22881;-59
2023/04/29 16:31:29;;;;;;;2.00;1.90;;;23.80;57.60;;;;;;221994;1264;24208;-58
2023/04/29 16:36:34;;;;;;;2.30;2.10;;;23.80;57.80;;;;;;222392;1267;24183;-58
2023/04/29 16:41:40;;;;;;;2.10;1.90;;;23.70;57.50;;;;;;222306;1266;26516;-58
2023/04/29 16:46:46;;;;;;;2.00;1.80;;;23.80;57.80;;;;;;222292;1267;22753;-58
2023/04/29 16:51:50;;;;;;;2.10;1.90;;;23.80;57.60;;;;;;222339;1269;25607;-59
2023/04/29 16:56:54;;;;;;;2.00;1.80;;;23.70;57.80;;;;;;222432;1266;23036;-57
2023/04/29 17:02:02;;;;;;;2.70;2.10;;;23.60;58.10;;;;;;222396;1265;22504;-56
2023/04/29 17:07:08;;;;;;;2.40;2.20;;;23.70;57.90;;;;;;222273;1268;22508;-57
2023/04/29 17:12:13;;;;;;;1.90;1.60;;;23.70;57.80;;;;;;222478;1268;24209;-57
2023/04/29 17:17:17;;;;;;;2.30;2.10;;;23.60;58.00;;;;;;222547;1250;22578;-58
2023/04/29 17:22:22;;;;;;;2.00;1.90;;;23.60;58.50;;;;;;222242;1267;23549;-58
2023/04/29 17:27:27;;;;;;;2.30;2.00;;;23.60;57.60;;;;;;222593;1267;25316;-59
2023/04/29 17:32:37;;;;;;;2.50;2.00;;;23.50;58.20;;;;;;222364;1263;25449;-57
2023/04/29 17:37:43;;;;;;;1.70;1.60;;;23.40;57.90;;;;;;222831;1251;24253;-61
2023/04/29 17:42:48;;;;;;;2.70;2.10;;;23.40;58.00;;;;;;222622;1264;25387;-58
2023/04/29 17:47:55;;;;;;;2.20;2.00;;;23.50;57.70;;;;;;222640;1268;22592;-60
2023/04/29 17:53:00;;;;;;;1.80;1.70;;;23.50;57.50;;;;;;222628;1263;22560;-57
2023/04/29 17:58:06;;;;;;;2.10;1.90;;;23.50;57.80;;;;;;222492;1268;25392;-59
2023/04/29 18:03:11;;;;;;;1.80;1.70;;;23.40;57.50;;;;;;222670;1264;22575;-61
2023/04/29 18:08:18;;;;;;;2.90;1.90;;;23.40;57.90;;;;;;222614;1265;22634;-61
2023/04/29 18:13:24;;;;;;;2.00;1.90;;;23.30;58.00;;;;;;222616;1253;22520;-60
2023/04/29 18:18:30;;;;;;;4.00;3.40;;;23.20;58.60;;;;;;222514;1263;22523;-62
2023/04/29 18:23:34;;;;;;;2.20;2.10;;;23.30;57.50;;;;;;222974;1267;24340;-59
2023/04/29 18:28:40;;;;;;;2.10;1.90;;;23.40;57.40;;;;;;222402;1266;22668;-61
2023/04/29 18:33:45;;;;;;;3.10;2.20;;;23.40;57.40;;;;;;222615;1256;24184;-60
2023/04/29 18:38:51;;;;;;;2.50;2.30;;;23.40;57.40;;;;;;222445;1264;24182;-59
2023/04/29 18:43:56;;;;;;;2.00;1.90;;;23.30;57.60;;;;;;222498;1263;22587;-60
2023/04/29 18:49:01;;;;;;;4.60;2.00;;;23.30;58.20;;;;;;222479;1248;24221;-61
2023/04/29 18:54:06;;;;;;;2.40;2.30;;;23.20;57.90;;;;;;222513;1263;22590;-60
2023/04/29 18:59:14;;;;;;;2.50;2.10;;;23.20;58.10;;;;;;222489;1269;22511;-60
2023/04/29 19:04:20;;;;;;;2.80;2.60;;;23.20;58.00;;;;;;222857;1257;22501;-59
2023/04/29 19:09:26;;;;;;;6.00;2.90;;;23.20;57.90;;;;;;222776;1266;22748;-59
2023/04/29 19:14:33;;;;;;;2.90;2.60;;;23.20;58.00;;;;;;222343;1263;22514;-57
2023/04/29 19:19:37;;;;;;;9.50;3.60;;;23.40;57.60;;;;;;222618;1253;24199;-60
2023/04/29 19:24:42;;;;;;;5.10;3.70;;;23.40;58.80;;;;;;222581;1266;22642;-59
2023/04/29 19:29:50;;;;;;;5.10;3.40;;;23.40;58.70;;;;;;222501;1265;22574;-59
2023/04/29 19:34:59;;;;;;;4.10;3.70;;;23.40;58.80;;;;;;222451;1253;24263;-60
2023/04/29 19:40:04;;;;;;;5.10;3.80;;;23.40;58.60;;;;;;222811;1263;25213;-62
2023/04/29 19:45:11;;;;;;;4.10;3.70;;;23.40;58.70;;;;;;222475;1266;25397;-62
2023/04/29 19:50:16;;;;;;;8.10;4.50;;;23.30;58.70;;;;;;222674;1260;22656;-59
2023/04/29 19:55:22;;;;;;;11.20;5.30;;;23.30;59.00;;;;;;223017;1263;24039;-60
2023/04/29 20:00:30;;;;;;;7.20;4.10;;;23.40;59.20;;;;;;222912;1263;22913;-61
2023/04/29 20:05:35;;;;;;;11.80;5.40;;;23.30;59.20;;;;;;222518;1269;22556;-62
2023/04/29 20:10:42;;;;;;;10.90;5.60;;;23.40;60.80;;;;;;222485;1263;22511;-66
2023/04/29 20:15:53;;;;;;;14.60;5.60;;;23.50;61.50;;;;;;222641;1267;22700;-63
2023/04/29 20:20:59;;;;;;;13.60;5.90;;;23.40;61.20;;;;;;222642;1263;22655;-62
2023/04/29 20:26:04;;;;;;;9.10;5.80;;;23.40;61.30;;;;;;222869;1263;25255;-67
2023/04/29 20:31:10;;;;;;;10.50;6.20;;;23.30;60.80;;;;;;222881;1253;22500;-61
2023/04/29 20:36:15;;;;;;;7.50;4.60;;;23.20;61.10;;;;;;222487;1266;25259;-63
2023/04/29 20:41:20;;;;;;;10.00;5.70;;;23.20;61.00;;;;;;222615;1263;24241;-62
2023/04/29 20:46:25;;;;;;;15.90;6.70;;;23.10;60.90;;;;;;222430;1266;22526;-63
2023/04/29 20:51:32;;;;;;;13.20;5.40;;;23.10;62.00;;;;;;222775;1266;22534;-61
2023/04/29 20:56:37;;;;;;;8.20;4.90;;;23.20;61.30;;;;;;222929;1259;22518;-63
2023/04/29 21:01:41;;;;;;;12.00;7.00;;;23.10;61.30;;;;;;222472;1265;22505;-62
2023/04/29 21:06:45;;;;;;;13.40;6.00;;;23.20;63.90;;;;;;222484;1263;24220;-61
2023/04/29 21:11:50;;;;;;;12.30;5.20;;;23.10;63.50;;;;;;222447;1253;24186;-62
2023/04/29 21:16:55;;;;;;;9.90;5.80;;;23.10;63.80;;;;;;222587;1265;24149;-65
2023/04/29 21:22:05;;;;;;;12.30;5.50;;;23.10;63.90;;;;;;222365;1264;24203;-60
2023/04/29 21:27:10;;;;;;;9.60;5.50;;;23.10;64.00;;;;;;222552;1257;22517;-61
2023/04/29 21:32:20;;;;;;;8.40;5.30;;;23.10;63.80;;;;;;222052;1263;22632;-61
2023/04/29 21:37:24;;;;;;;8.80;5.60;;;23.00;63.90;;;;;;222553;1263;22513;-60
2023/04/29 21:42:30;;;;;;;9.50;5.40;;;23.00;63.90;;;;;;222825;1254;25277;-61
2023/04/29 21:47:35;;;;;;;6.10;5.50;;;23.00;63.90;;;;;;222515;1263;24291;-63
2023/04/29 21:52:39;;;;;;;9.10;5.40;;;23.00;63.90;;;;;;222242;1259;25563;-65
2023/04/29 21:57:44;;;;;;;7.60;5.80;;;23.00;63.80;;;;;;222808;1263;24229;-57
2023/04/29 22:02:48;;;;;;;8.00;5.60;;;23.00;64.00;;;;;;222460;1266;22525;-60
2023/04/29 22:07:58;;;;;;;7.00;5.40;;;22.90;63.50;;;;;;222486;1266;24931;-60
2023/04/29 22:13:03;;;;;;;12.70;4.80;;;22.90;63.70;;;;;;222569;1253;24186;-63
2023/04/29 22:18:07;;;;;;;9.90;5.50;;;22.90;63.90;;;;;;222395;1269;22508;-61
2023/04/29 22:23:12;;;;;;;6.90;5.00;;;22.90;63.70;;;;;;222651;1263;22508;-64
2023/04/29 22:28:16;;;;;;;6.00;5.20;;;22.90;63.80;;;;;;222900;1263;22514;-63
2023/04/29 22:33:21;;;;;;;6.80;4.80;;;22.90;63.80;;;;;;222640;1263;25394;-61
2023/04/29 22:38:25;;;;;;;6.00;5.20;;;22.90;63.60;;;;;;222570;1262;25290;-60
2023/04/29 22:43:29;;;;;;;9.60;6.20;;;22.90;63.70;;;;;;224504;1263;22629;-60
2023/04/29 22:48:33;;;;;;;6.30;5.30;;;23.00;63.10;;;;;;222514;1256;23893;-58
2023/04/29 22:53:37;;;;;;;15.80;4.90;;;23.10;62.80;;;;;;222702;1264;22514;-59
2023/04/29 22:58:42;;;;;;;6.40;5.40;;;23.40;62.50;;;;;;222796;1269;25487;-57
2023/04/29 23:03:46;;;;;;;6.20;4.70;;;23.60;61.50;;;;;;222319;1260;22591;-59
2023/04/29 23:08:52;;;;;;;5.80;4.50;;;23.90;60.60;;;;;;222526;1262;22652;-61
2023/04/29 23:13:57;;;;;;;6.00;4.70;;;23.90;60.20;;;;;;222739;1261;22920;-61
2023/04/29 23:19:01;;;;;;;6.10;4.10;;;24.10;60.10;;;;;;222473;1263;24186;-59
2023/04/29 23:24:05;;;;;;;4.50;4.10;;;24.20;59.60;;;;;;222342;1263;25628;-60
2023/04/29 23:29:09;;;;;;;5.00;4.40;;;24.20;59.60;;;;;;222193;1266;22966;-59
2023/04/29 23:34:15;;;;;;;4.40;3.90;;;24.30;59.30;;;;;;223106;1263;24203;-62
2023/04/29 23:39:19;;;;;;;4.90;4.40;;;24.40;58.90;;;;;;222592;1263;25472;-61
2023/04/29 23:44:25;;;;;;;4.70;4.10;;;24.50;58.60;;;;;;222375;1263;22567;-65
2023/04/29 23:49:29;;;;;;;4.40;4.00;;;24.60;58.10;;;;;;222200;1262;22523;-66
2023/04/29 23:54:34;;;;;;;4.90;3.90;;;24.70;58.30;;;;;;222132;1259;24228;-61
2023/04/29 23:59:38;;;;;;;4.00;3.60;;;24.70;58.00;;;;;;222408;1256;24369;-60
